Time;durP1;ratioP1;P1;durP2;ratioP2;P2;SDS_P1;SDS_P2;PMS_P1;PMS_P2;Temp;Humidity;BMP_temperature;BMP_pressure;BME280_temperature;BME280_humidity;BME280_pressure;Samples;Min_cycle;Max_cycle;Signal;HPM_P1;HPM_P2
2023/06/20 00:03:45;;;;;;;7.65;5.60;;;20.20;99.90;;;;;;12419292;28;20048;-39
2023/06/20 00:09:47;;;;;;;6.95;5.15;;;20.20;99.90;;;;;;12417906;28;20042;-38
2023/06/20 00:15:49;;;;;;;9.80;5.60;;;20.40;99.90;;;;;;12416596;28;20525;-38
2023/06/20 00:21:51;;;;;;;8.20;5.78;;;20.20;99.90;;;;;;12413747;28;20140;-38
2023/06/20 00:27:53;;;;;;;8.00;5.40;;;19.90;99.90;;;;;;12384868;28;20600;-37
2023/06/20 00:33:54;;;;;;;10.27;5.43;;;19.90;99.90;;;;;;12377226;28;20522;-39
2023/06/20 00:39:57;;;;;;;9.38;6.10;;;20.00;99.90;;;;;;12360874;28;20062;-38
2023/06/20 00:45:59;;;;;;;9.25;5.75;;;20.00;99.90;;;;;;12357952;28;20093;-37
2023/06/20 00:52:05;;;;;;;9.70;5.78;;;19.90;99.90;;;;;;12360019;28;20443;-38
2023/06/20 00:58:07;;;;;;;10.32;5.40;;;19.90;99.90;;;;;;12369242;28;20077;-37
2023/06/20 01:04:09;;;;;;;8.13;5.57;;;19.90;99.90;;;;;;12347010;28;20093;-38
2023/06/20 01:10:22;;;;;;;9.95;6.38;;;19.80;99.90;;;;;;12358487;28;20042;-38
2023/06/20 01:16:42;;;;;;;8.20;6.55;;;19.70;99.90;;;;;;12364420;28;20467;-37
2023/06/20 01:22:57;;;;;;;8.90;6.28;;;19.60;99.90;;;;;;12362180;28;20663;-38
2023/06/20 01:29:08;;;;;;;8.43;6.82;;;19.50;99.90;;;;;;12407245;28;20381;-38
2023/06/20 01:35:16;;;;;;;7.45;6.10;;;19.60;99.90;;;;;;12409225;28;20096;-37
2023/06/20 01:41:22;;;;;;;9.52;6.65;;;19.50;99.90;;;;;;12421253;28;20046;-37
2023/06/20 01:47:25;;;;;;;9.63;6.03;;;19.40;99.90;;;;;;12416409;28;20042;-38
2023/06/20 01:53:29;;;;;;;8.75;6.63;;;19.40;99.90;;;;;;12422575;28;20739;-37
2023/06/20 01:59:35;;;;;;;8.20;6.53;;;19.40;99.90;;;;;;12408495;28;20045;-38
2023/06/20 02:05:38;;;;;;;7.93;6.50;;;19.10;99.90;;;;;;12405117;28;20046;-37
2023/06/20 02:11:40;;;;;;;8.88;6.22;;;19.10;99.90;;;;;;12413376;28;20068;-38
2023/06/20 02:17:43;;;;;;;7.75;5.53;;;19.10;99.90;;;;;;12416799;28;20174;-39
2023/06/20 02:23:50;;;;;;;8.75;6.55;;;19.40;99.90;;;;;;12394486;28;20050;-38
2023/06/20 02:29:54;;;;;;;7.43;6.53;;;19.40;99.90;;;;;;12355985;28;20104;-38
2023/06/20 02:35:56;;;;;;;8.07;6.90;;;19.30;99.90;;;;;;12348796;28;20154;-38
2023/06/20 02:41:58;;;;;;;10.10;6.90;;;19.50;99.90;;;;;;12356051;28;20086;-38
2023/06/20 02:48:22;;;;;;;9.32;7.45;;;19.20;99.90;;;;;;12349592;28;20068;-38
2023/06/20 02:54:58;;;;;;;10.63;7.13;;;18.90;99.90;;;;;;12347229;28;20046;-37
2023/06/20 03:01:01;;;;;;;9.20;7.30;;;18.80;99.90;;;;;;12343168;28;20582;-37
2023/06/20 03:07:06;;;;;;;;;;;19.00;99.90;;;;;;12364237;28;20433;-37
2023/06/20 03:13:13;;;;;;;10.35;6.85;;;19.40;99.90;;;;;;12346979;28;19925;-38
2023/06/20 03:19:15;;;;;;;8.35;6.78;;;19.60;99.90;;;;;;12356630;28;20402;-37
2023/06/20 03:25:17;;;;;;;9.60;7.10;;;19.80;99.90;;;;;;12337363;28;20077;-37
2023/06/20 03:31:19;;;;;;;10.98;7.15;;;19.70;99.90;;;;;;12416289;28;20407;-38
2023/06/20 03:37:21;;;;;;;9.77;8.07;;;19.60;99.90;;;;;;12390758;28;20180;-39
2023/06/20 03:43:23;;;;;;;12.07;8.48;;;18.90;99.90;;;;;;12391466;28;20204;-37
2023/06/20 03:49:25;;;;;;;15.70;8.45;;;18.80;99.90;;;;;;12410290;28;20067;-37
2023/06/20 03:55:26;;;;;;;10.82;8.88;;;18.80;99.90;;;;;;12402171;28;20047;-38
2023/06/20 04:01:29;;;;;;;11.20;8.63;;;18.80;99.90;;;;;;12411821;28;20058;-38
2023/06/20 04:07:31;;;;;;;10.02;8.85;;;18.90;99.90;;;;;;12421258;28;20680;-38
2023/06/20 04:13:33;;;;;;;9.50;8.35;;;19.10;99.90;;;;;;12401396;28;20125;-38
2023/06/20 04:19:36;;;;;;;10.90;7.93;;;19.30;99.90;;;;;;12422460;28;20074;-38
2023/06/20 04:25:37;;;;;;;11.25;8.27;;;19.50;99.90;;;;;;12393691;28;20473;-38
2023/06/20 04:31:39;;;;;;;12.93;8.60;;;19.50;99.90;;;;;;12350799;28;20046;-37
2023/06/20 04:37:42;;;;;;;9.87;8.87;;;19.50;99.90;;;;;;12372039;28;20050;-38
2023/06/20 04:43:44;;;;;;;10.35;8.82;;;19.00;99.90;;;;;;12346325;28;20655;-38
2023/06/20 04:49:46;;;;;;;13.07;8.80;;;19.00;99.90;;;;;;12347690;28;20046;-39
2023/06/20 04:55:49;;;;;;;11.23;7.75;;;19.30;99.90;;;;;;12353947;28;20144;-38
2023/06/20 05:01:51;;;;;;;9.82;7.97;;;19.40;99.90;;;;;;12352537;28;20057;-38
2023/06/20 05:07:53;;;;;;;9.73;8.68;;;19.60;99.90;;;;;;12354594;28;20049;-38
2023/06/20 05:13:55;;;;;;;12.48;9.38;;;19.40;99.90;;;;;;12367730;28;20137;-38
2023/06/20 05:19:57;;;;;;;10.80;9.70;;;19.50;99.90;;;;;;12350131;28;20050;-37
2023/06/20 05:26:01;;;;;;;16.08;10.90;;;19.50;99.90;;;;;;12359486;28;20119;-37
2023/06/20 05:32:04;;;;;;;15.48;10.73;;;19.30;99.90;;;;;;12398554;28;20405;-38
2023/06/20 05:38:06;;;;;;;16.33;11.93;;;19.30;99.90;;;;;;12393191;28;20351;-38
2023/06/20 05:44:08;;;;;;;16.02;12.93;;;19.30;99.90;;;;;;12414674;28;20109;-39
2023/06/20 05:50:10;;;;;;;14.88;13.30;;;19.40;99.90;;;;;;12402990;28;20422;-38
2023/06/20 05:56:13;;;;;;;15.55;13.27;;;19.40;99.90;;;;;;12383776;28;20165;-37
2023/06/20 06:02:15;;;;;;;15.88;14.10;;;19.40;99.90;;;;;;12414194;28;20053;-38
2023/06/20 06:08:18;;;;;;;16.80;14.60;;;19.30;99.90;;;;;;12407013;28;20049;-38
2023/06/20 06:14:19;;;;;;;21.30;16.33;;;18.70;99.90;;;;;;12395844;28;20148;-38
2023/06/20 06:20:23;;;;;;;19.90;15.80;;;18.50;99.90;;;;;;12407187;28;20146;-39
2023/06/20 06:26:26;;;;;;;19.58;16.67;;;18.30;99.90;;;;;;12377936;28;20042;-38
2023/06/20 06:32:28;;;;;;;20.00;16.95;;;18.20;99.90;;;;;;12361921;28;20077;-39
2023/06/20 06:38:32;;;;;;;19.15;17.15;;;18.20;99.90;;;;;;12343469;28;20138;-38
2023/06/20 06:44:34;;;;;;;24.15;18.27;;;18.20;99.90;;;;;;12356373;28;20564;-38
2023/06/20 06:50:35;;;;;;;23.95;18.50;;;18.20;99.90;;;;;;12352807;28;20089;-37
2023/06/20 06:56:37;;;;;;;23.48;18.38;;;18.30;99.90;;;;;;12353945;28;20053;-38
2023/06/20 07:02:39;;;;;;;22.10;18.67;;;18.40;99.90;;;;;;12356985;28;20106;-38
2023/06/20 07:08:43;;;;;;;19.92;17.80;;;18.40;99.90;;;;;;12370715;28;20041;-37
2023/06/20 07:14:45;;;;;;;20.35;17.50;;;18.60;99.90;;;;;;12362573;28;20135;-39
2023/06/20 07:20:47;;;;;;;18.13;16.02;;;18.70;99.90;;;;;;12361953;28;20081;-38
2023/06/20 07:26:49;;;;;;;20.70;15.07;;;18.70;99.90;;;;;;12372509;28;20112;-38
2023/06/20 07:32:51;;;;;;;20.30;16.00;;;18.80;99.90;;;;;;12409068;28;20051;-38
2023/06/20 07:38:53;;;;;;;20.67;16.00;;;18.80;99.90;;;;;;12409634;28;20045;-38
2023/06/20 07:44:55;;;;;;;18.33;14.80;;;19.00;99.90;;;;;;12417948;28;20136;-38
2023/06/20 07:50:57;;;;;;;16.38;14.23;;;18.90;99.90;;;;;;12428125;28;20048;-39
2023/06/20 07:57:00;;;;;;;19.65;14.05;;;19.00;99.90;;;;;;12380383;28;20046;-37
2023/06/20 08:03:01;;;;;;;15.35;13.73;;;19.20;99.90;;;;;;12397173;28;20062;-38
2023/06/20 08:09:05;;;;;;;14.20;12.25;;;19.30;99.90;;;;;;12418592;28;20046;-38
2023/06/20 08:15:07;;;;;;;13.90;12.50;;;19.50;99.90;;;;;;12388831;28;20046;-38
2023/06/20 08:21:09;;;;;;;13.85;11.63;;;19.70;99.90;;;;;;12410586;28;20042;-38
2023/06/20 08:27:11;;;;;;;12.30;10.52;;;19.70;99.90;;;;;;12377786;28;20092;-38
2023/06/20 08:33:13;;;;;;;11.38;10.18;;;19.70;99.90;;;;;;12366349;28;20661;-38
2023/06/20 08:39:16;;;;;;;10.88;9.73;;;19.70;99.90;;;;;;12373515;28;20103;-38
2023/06/20 08:45:20;;;;;;;10.55;9.52;;;19.70;99.90;;;;;;12356730;28;20383;-38
2023/06/20 08:51:23;;;;;;;;;;;19.80;99.90;;;;;;12385352;28;20049;-37
2023/06/20 08:57:24;;;;;;;10.75;9.65;;;20.00;99.90;;;;;;12340960;28;19925;-38
2023/06/20 09:03:26;;;;;;;10.43;9.00;;;20.20;99.90;;;;;;12351285;28;20526;-39
2023/06/20 09:09:28;;;;;;;11.48;10.30;;;20.10;99.90;;;;;;12332063;28;20138;-39
2023/06/20 09:15:30;;;;;;;10.77;9.40;;;20.20;99.90;;;;;;12368813;28;20128;-39
2023/06/20 09:21:36;;;;;;;11.48;10.27;;;20.20;99.90;;;;;;12358752;28;20080;-40
2023/06/20 09:27:40;;;;;;;11.05;9.85;;;20.30;99.90;;;;;;12372499;28;20152;-38
2023/06/20 09:33:42;;;;;;;10.63;9.52;;;20.50;99.90;;;;;;12405395;28;20423;-38
2023/06/20 09:39:44;;;;;;;12.02;9.93;;;20.80;99.90;;;;;;12390519;28;20058;-39
2023/06/20 09:45:46;;;;;;;10.20;8.90;;;21.20;99.90;;;;;;12416984;28;20407;-38
2023/06/20 09:51:49;;;;;;;9.68;8.10;;;21.80;99.90;;;;;;12383740;28;20066;-40
2023/06/20 09:57:53;;;;;;;8.70;7.80;;;22.10;99.90;;;;;;12396564;28;20058;-38
2023/06/20 10:03:56;;;;;;;8.50;7.60;;;21.60;99.90;;;;;;12392572;28;20540;-39
2023/06/20 10:10:00;;;;;;;8.25;7.35;;;21.60;99.90;;;;;;12382992;28;20050;-38
2023/06/20 10:16:04;;;;;;;9.00;7.57;;;21.50;99.90;;;;;;12405040;28;20552;-39
2023/06/20 10:22:06;;;;;;;8.25;7.38;;;21.40;99.90;;;;;;12403472;28;20042;-38
2023/06/20 10:28:09;;;;;;;8.77;7.60;;;21.20;99.90;;;;;;12358132;28;20095;-39
2023/06/20 10:34:33;;;;;;;8.85;7.88;;;21.20;99.90;;;;;;12381780;28;20137;-38
2023/06/20 10:40:39;;;;;;;10.13;7.38;;;21.40;99.90;;;;;;12356175;28;20142;-38
2023/06/20 10:46:40;;;;;;;9.07;8.02;;;21.50;99.90;;;;;;12380827;28;20050;-38
2023/06/20 10:52:43;;;;;;;9.05;8.10;;;21.80;99.90;;;;;;12379003;28;20047;-39
2023/06/20 10:58:48;;;;;;;10.18;8.43;;;22.00;99.90;;;;;;12386962;28;20058;-39
2023/06/20 11:04:52;;;;;;;8.75;7.90;;;22.30;99.90;;;;;;12358916;28;20060;-38
2023/06/20 11:10:55;;;;;;;8.20;7.35;;;23.30;99.90;;;;;;12387533;28;20176;-38
2023/06/20 11:16:56;;;;;;;8.13;6.65;;;24.20;99.90;;;;;;12407758;28;20116;-38
2023/06/20 11:23:01;;;;;;;7.50;6.32;;;24.50;99.90;;;;;;12390713;28;20317;-39
2023/06/20 11:29:05;;;;;;;8.88;6.70;;;24.40;99.90;;;;;;12392344;28;20061;-38
2023/06/20 11:35:15;;;;;;;6.67;5.97;;;23.90;99.90;;;;;;12378780;28;20640;-38
2023/06/20 11:41:18;;;;;;;7.28;5.50;;;24.10;99.90;;;;;;12402140;28;20057;-38
2023/06/20 11:47:20;;;;;;;6.13;4.63;;;24.20;99.90;;;;;;12406249;28;20149;-39
2023/06/20 11:53:25;;;;;;;5.90;5.00;;;24.50;99.90;;;;;;12414604;28;20050;-39
2023/06/20 11:59:27;;;;;;;6.10;4.90;;;24.70;99.90;;;;;;12387496;28;20054;-39
2023/06/20 12:05:32;;;;;;;4.82;4.32;;;25.20;99.90;;;;;;12402879;28;20042;-39
2023/06/20 12:11:36;;;;;;;5.53;3.88;;;25.70;99.90;;;;;;12394602;28;20077;-39
2023/06/20 12:17:37;;;;;;;4.88;3.53;;;26.30;99.90;;;;;;12405229;28;20069;-39
2023/06/20 12:23:40;;;;;;;4.67;3.60;;;26.70;99.90;;;;;;12409314;28;20045;-38
2023/06/20 12:29:41;;;;;;;4.13;3.28;;;26.90;99.90;;;;;;12400288;28;20521;-39
2023/06/20 12:35:43;;;;;;;5.03;3.30;;;26.80;99.90;;;;;;12398347;28;20081;-40
2023/06/20 12:41:45;;;;;;;4.75;3.35;;;26.80;99.90;;;;;;12405401;28;20070;-39
2023/06/20 12:47:47;;;;;;;7.50;4.10;;;26.90;99.90;;;;;;12417691;28;20081;-39
2023/06/20 12:53:49;;;;;;;5.73;3.73;;;27.30;99.90;;;;;;12390652;28;20039;-39
2023/06/20 12:59:51;;;;;;;5.27;3.47;;;27.60;99.90;;;;;;12385984;28;20553;-39
2023/06/20 13:05:53;;;;;;;5.45;3.28;;;27.20;99.90;;;;;;12400000;28;20080;-40
2023/06/20 13:11:56;;;;;;;5.33;3.20;;;27.00;99.90;;;;;;12402666;28;20076;-39
2023/06/20 13:18:02;;;;;;;3.90;2.70;;;27.40;99.90;;;;;;12407322;28;20460;-39
2023/06/20 13:24:06;;;;;;;3.55;2.67;;;27.70;99.90;;;;;;12409122;28;20053;-40
2023/06/20 13:30:15;;;;;;;6.28;3.22;;;27.60;99.90;;;;;;12396781;28;20533;-40
2023/06/20 13:36:17;;;;;;;5.78;3.30;;;26.80;99.90;;;;;;12397321;28;20050;-39
2023/06/20 13:42:21;;;;;;;4.35;3.33;;;27.00;99.90;;;;;;12393942;28;20046;-39
2023/06/20 13:48:23;;;;;;;6.73;3.50;;;27.50;99.90;;;;;;12421160;28;20076;-39
2023/06/20 13:54:25;;;;;;;3.78;3.30;;;27.20;99.90;;;;;;12390291;28;20053;-39
2023/06/20 14:00:27;;;;;;;5.18;3.67;;;27.40;99.90;;;;;;12388337;28;20062;-40
2023/06/20 14:06:29;;;;;;;3.92;3.30;;;27.80;99.90;;;;;;12412147;28;20050;-40
2023/06/20 14:12:32;;;;;;;3.95;2.97;;;27.90;99.90;;;;;;12401607;28;20055;-39
2023/06/20 14:18:36;;;;;;;3.85;3.28;;;27.20;99.90;;;;;;12419109;28;20057;-39
2023/06/20 14:24:39;;;;;;;5.80;3.80;;;27.30;99.90;;;;;;12405279;28;20065;-38
2023/06/20 14:30:46;;;;;;;4.78;3.92;;;27.60;99.90;;;;;;12407273;28;20054;-39
2023/06/20 14:36:48;;;;;;;4.45;3.67;;;27.80;99.90;;;;;;12409694;28;20131;-38
2023/06/20 14:42:50;;;;;;;5.87;4.30;;;27.90;99.90;;;;;;12413549;28;20413;-39
2023/06/20 14:48:52;;;;;;;4.70;3.95;;;28.10;99.90;;;;;;12409620;28;20084;-38
2023/06/20 14:54:54;;;;;;;5.07;3.92;;;27.90;99.90;;;;;;12395870;28;20047;-39
2023/06/20 15:00:58;;;;;;;5.80;4.00;;;27.90;99.90;;;;;;12416633;28;20049;-40
2023/06/20 15:07:00;;;;;;;8.02;4.00;;;27.60;99.90;;;;;;12408256;28;20084;-38
2023/06/20 15:13:02;;;;;;;4.97;3.90;;;27.30;99.90;;;;;;12414566;28;20414;-38
2023/06/20 15:19:04;;;;;;;4.65;3.70;;;26.90;99.90;;;;;;12418755;28;20061;-39
2023/06/20 15:25:07;;;;;;;6.90;4.37;;;27.30;99.90;;;;;;12394095;28;20070;-38
2023/06/20 15:31:10;;;;;;;6.47;3.90;;;27.50;99.90;;;;;;12399812;28;20049;-39
2023/06/20 15:37:14;;;;;;;4.78;3.67;;;27.30;99.90;;;;;;12411158;28;20076;-39
2023/06/20 15:43:17;;;;;;;6.15;4.10;;;27.60;99.90;;;;;;12414630;28;20402;-39
2023/06/20 15:49:21;;;;;;;4.65;4.10;;;27.40;99.90;;;;;;12434391;28;20038;-39
2023/06/20 15:55:23;;;;;;;4.53;3.90;;;27.30;99.90;;;;;;12425722;28;20049;-38
2023/06/20 16:01:27;;;;;;;5.57;4.03;;;27.50;99.90;;;;;;12428585;28;20133;-39
2023/06/20 16:07:29;;;;;;;5.25;3.47;;;27.90;99.90;;;;;;12414660;28;20104;-39
2023/06/20 16:13:31;;;;;;;7.23;3.90;;;28.20;99.90;;;;;;12411835;28;20077;-38
2023/06/20 16:19:33;;;;;;;;;;;28.40;99.90;;;;;;12408027;28;20113;-39
2023/06/20 16:25:35;;;;;;;3.87;3.30;;;28.30;99.90;;;;;;12414749;28;19925;-39
2023/06/20 16:31:37;;;;;;;6.00;4.10;;;28.30;99.90;;;;;;12400889;28;20462;-39
2023/06/20 16:37:39;;;;;;;5.82;3.58;;;28.10;99.90;;;;;;12423745;28;20542;-38
2023/06/20 16:43:41;;;;;;;5.80;3.80;;;27.70;99.90;;;;;;12408464;28;20169;-39
2023/06/20 16:49:43;;;;;;;4.57;3.67;;;27.90;99.90;;;;;;12426690;28;20308;-39
2023/06/20 16:55:45;;;;;;;4.72;3.42;;;28.10;99.90;;;;;;12402644;28;20042;-39
2023/06/20 17:01:48;;;;;;;4.00;3.53;;;28.10;99.90;;;;;;12404192;28;20173;-39
2023/06/20 17:07:50;;;;;;;4.28;3.42;;;28.00;99.90;;;;;;12403769;28;20050;-39
2023/06/20 17:13:52;;;;;;;4.30;3.40;;;27.90;99.90;;;;;;12421118;28;20517;-39
2023/06/20 17:19:54;;;;;;;4.82;3.53;;;27.90;99.90;;;;;;12422341;28;20073;-39
2023/06/20 17:25:56;;;;;;;8.83;3.57;;;27.80;99.90;;;;;;12395705;28;20053;-40
2023/06/20 17:32:00;;;;;;;5.40;3.85;;;27.70;99.90;;;;;;12417522;28;20297;-40
2023/06/20 17:38:02;;;;;;;4.47;3.88;;;27.30;99.90;;;;;;12418366;28;20061;-39
2023/06/20 17:44:04;;;;;;;6.32;3.92;;;27.20;99.90;;;;;;12417931;28;20054;-39
2023/06/20 17:50:07;;;;;;;4.88;3.60;;;27.20;99.90;;;;;;12420003;28;20046;-39
2023/06/20 17:56:10;;;;;;;6.10;3.83;;;26.90;99.90;;;;;;12375450;28;20152;-39
2023/06/20 18:02:15;;;;;;;4.50;3.70;;;26.60;99.90;;;;;;12406970;28;20137;-38
2023/06/20 18:08:17;;;;;;;4.20;3.63;;;26.40;99.90;;;;;;12387637;28;20054;-39
2023/06/20 18:14:18;;;;;;;4.77;4.00;;;26.10;99.90;;;;;;12402535;28;20045;-38
2023/06/20 18:20:20;;;;;;;5.20;4.03;;;26.00;99.90;;;;;;12415663;28;20391;-38
2023/06/20 18:26:22;;;;;;;5.80;3.93;;;25.80;99.90;;;;;;12416114;28;20042;-38
2023/06/20 18:32:24;;;;;;;6.00;4.53;;;25.80;99.90;;;;;;12416840;28;20042;-39
2023/06/20 18:38:26;;;;;;;4.53;3.83;;;25.80;99.90;;;;;;12420007;28;20248;-39
2023/06/20 18:44:28;;;;;;;4.65;3.92;;;25.70;99.90;;;;;;12420931;28;20285;-38
2023/06/20 18:50:33;;;;;;;5.47;4.73;;;25.60;99.90;;;;;;12418799;28;20411;-39
2023/06/20 18:56:36;;;;;;;5.97;4.18;;;25.40;99.90;;;;;;12410846;28;20050;-39
2023/06/20 19:02:38;;;;;;;6.13;3.97;;;25.30;99.90;;;;;;12413873;28;20164;-39
2023/06/20 19:08:41;;;;;;;6.67;4.20;;;25.20;99.90;;;;;;12403104;28;20042;-39
2023/06/20 19:14:43;;;;;;;;;;;25.10;99.90;;;;;;12421497;28;20070;-39
2023/06/20 19:20:45;;;;;;;4.78;4.15;;;25.00;99.90;;;;;;12430627;28;19929;-38
2023/06/20 19:26:47;;;;;;;6.70;4.57;;;25.00;99.90;;;;;;12413931;28;20035;-39
2023/06/20 19:32:50;;;;;;;7.18;4.50;;;25.00;99.90;;;;;;12425735;28;20057;-38
2023/06/20 19:38:52;;;;;;;8.80;4.43;;;24.80;99.90;;;;;;12418649;28;20137;-38
2023/06/20 19:44:54;;;;;;;6.68;4.68;;;24.80;99.90;;;;;;12408499;28;20050;-38
2023/06/20 19:50:56;;;;;;;8.05;4.57;;;24.80;99.90;;;;;;12402336;28;20499;-38
2023/06/20 19:56:58;;;;;;;7.37;4.60;;;24.70;99.90;;;;;;12404301;28;20049;-39
2023/06/20 20:03:00;;;;;;;5.87;3.73;;;24.70;99.90;;;;;;12401905;28;20045;-38
2023/06/20 20:09:04;;;;;;;4.03;3.60;;;24.90;99.90;;;;;;12426853;28;20134;-39
2023/06/20 20:15:10;;;;;;;3.40;3.10;;;25.00;99.90;;;;;;12425455;28;20051;-38
2023/06/20 20:21:12;;;;;;;5.53;3.25;;;25.20;99.90;;;;;;12415214;28;20053;-41
2023/06/20 20:27:14;;;;;;;4.57;3.37;;;25.40;99.90;;;;;;12416367;28;20050;-39
2023/06/20 20:33:16;;;;;;;4.30;3.42;;;25.50;99.90;;;;;;12414078;28;20065;-39
2023/06/20 20:39:18;;;;;;;4.20;3.60;;;25.40;99.90;;;;;;12419627;28;20122;-39
2023/06/20 20:45:20;;;;;;;4.45;3.40;;;25.40;99.90;;;;;;12419287;28;20584;-41
2023/06/20 20:51:22;;;;;;;7.93;3.63;;;25.40;99.90;;;;;;12399089;28;20074;-39
2023/06/20 20:57:24;;;;;;;9.67;4.30;;;25.40;99.90;;;;;;12413918;28;20060;-39
2023/06/20 21:03:26;;;;;;;6.80;4.13;;;25.30;99.90;;;;;;12410973;28;20093;-40
2023/06/20 21:09:28;;;;;;;5.90;4.35;;;25.00;99.90;;;;;;12401139;28;20042;-40
2023/06/20 21:15:30;;;;;;;6.63;3.90;;;24.60;99.90;;;;;;12415746;28;20034;-39
2023/06/20 21:21:32;;;;;;;8.40;4.43;;;24.20;99.90;;;;;;12403543;28;20050;-39
2023/06/20 21:27:34;;;;;;;13.90;4.85;;;23.50;99.90;;;;;;12407481;28;20498;-41
2023/06/20 21:33:36;;;;;;;11.40;4.35;;;22.20;99.90;;;;;;12404382;28;20042;-39
2023/06/20 21:39:38;;;;;;;10.38;4.28;;;21.50;99.90;;;;;;12406632;28;20081;-39
2023/06/20 21:45:39;;;;;;;9.50;4.70;;;21.20;99.90;;;;;;12390188;28;20041;-39
2023/06/20 21:51:43;;;;;;;10.18;5.35;;;21.00;99.90;;;;;;12401252;28;20479;-39
2023/06/20 21:57:45;;;;;;;6.82;5.20;;;21.00;99.90;;;;;;12393263;28;20169;-41
2023/06/20 22:03:48;;;;;;;15.02;7.25;;;20.90;99.90;;;;;;12402719;28;20050;-39
2023/06/20 22:09:50;;;;;;;12.03;6.90;;;20.80;99.90;;;;;;12402922;28;20049;-39
2023/06/20 22:16:04;;;;;;;10.73;6.22;;;20.60;99.90;;;;;;12430896;28;20430;-39
2023/06/20 22:22:06;;;;;;;9.57;6.45;;;20.50;99.90;;;;;;12427486;28;20102;-39
2023/06/20 22:28:08;;;;;;;9.02;6.00;;;20.50;99.90;;;;;;12399984;28;20518;-38
2023/06/20 22:34:10;;;;;;;8.85;6.32;;;20.30;99.90;;;;;;12414749;28;20053;-39
2023/06/20 22:40:12;;;;;;;9.25;6.15;;;20.20;99.90;;;;;;12414010;28;20052;-38
2023/06/20 22:46:14;;;;;;;7.35;5.78;;;20.30;99.90;;;;;;12419932;28;20324;-38
2023/06/20 22:52:16;;;;;;;14.60;7.03;;;20.30;99.90;;;;;;12421769;28;20082;-39
2023/06/20 22:58:18;;;;;;;12.30;6.30;;;20.40;99.90;;;;;;12423166;28;20054;-40
2023/06/20 23:04:20;;;;;;;10.48;5.57;;;20.40;99.90;;;;;;12402642;28;20133;-39
2023/06/20 23:10:23;;;;;;;8.48;6.45;;;20.40;99.90;;;;;;12433394;28;20403;-38
2023/06/20 23:16:25;;;;;;;7.95;6.05;;;20.30;99.90;;;;;;12416585;28;21100;-40
2023/06/20 23:22:27;;;;;;;9.63;6.32;;;20.20;99.90;;;;;;12436376;28;20050;-39
2023/06/20 23:28:28;;;;;;;8.77;6.22;;;20.20;99.90;;;;;;12415091;28;20089;-39
2023/06/20 23:34:31;;;;;;;6.63;5.47;;;20.20;99.90;;;;;;12437346;28;20123;-39
2023/06/20 23:40:32;;;;;;;6.60;5.32;;;20.20;99.90;;;;;;12421500;28;20054;-38
2023/06/20 23:46:34;;;;;;;8.30;5.93;;;20.40;99.90;;;;;;12413104;28;20047;-39
2023/06/20 23:52:36;;;;;;;7.45;5.68;;;20.50;99.90;;;;;;12404722;28;20062;-38
2023/06/20 23:58:38;;;;;;;7.30;5.68;;;20.40;99.90;;;;;;12388556;28;20069;-38
